Time;durP1;ratioP1;P1;durP2;ratioP2;P2;SDS_P1;SDS_P2;PMS_P1;PMS_P2;Temp;Humidity;BMP_temperature;BMP_pressure;BME280_temperature;BME280_humidity;BME280_pressure;Samples;Min_cycle;Max_cycle;Signal;HPM_P1;HPM_P2
2021/12/14 00:01:37;;;;;;;14.55;7.60;;;8.00;99.90;;;;;;4946752;28;20058;-79
2021/12/14 00:04:28;;;;;;;13.50;7.90;;;8.00;99.90;;;;;;4943696;28;20054;-77
2021/12/14 00:06:56;;;;;;;13.85;7.28;;;8.00;99.90;;;;;;4947615;28;20051;-76
2021/12/14 00:09:27;;;;;;;17.48;8.50;;;8.00;99.90;;;;;;4943646;28;20063;-78
2021/12/14 00:17:19;;;;;;;15.45;8.48;;;7.90;99.90;;;;;;4943162;28;20088;-77
2021/12/14 00:19:47;;;;;;;16.73;8.43;;;7.90;99.90;;;;;;4942899;29;20091;-77
2021/12/14 00:24:54;;;;;;;17.80;8.82;;;7.90;99.90;;;;;;4963030;28;20129;-77
2021/12/14 00:27:23;;;;;;;15.27;8.43;;;7.90;99.90;;;;;;4955601;28;20109;-77
2021/12/14 00:29:53;;;;;;;15.68;8.73;;;8.00;99.90;;;;;;4956006;28;20051;-77
2021/12/14 00:32:20;;;;;;;15.60;9.45;;;7.90;99.90;;;;;;4954908;28;20086;-77
2021/12/14 00:34:48;;;;;;;17.10;9.35;;;8.00;99.90;;;;;;4938945;29;20130;-77
2021/12/14 00:37:19;;;;;;;14.27;8.02;;;8.00;99.90;;;;;;4952176;29;20047;-79
2021/12/14 00:39:46;;;;;;;17.52;9.50;;;8.00;99.90;;;;;;4924874;29;20142;-78
2021/12/14 00:42:12;;;;;;;16.63;9.02;;;8.00;99.90;;;;;;4936273;29;20485;-78
2021/12/14 00:44:39;;;;;;;19.25;9.95;;;8.00;99.90;;;;;;4959052;28;20509;-77
2021/12/14 00:47:05;;;;;;;19.33;9.48;;;8.00;99.90;;;;;;4953164;29;20055;-77
2021/12/14 00:49:32;;;;;;;17.98;10.13;;;8.00;99.90;;;;;;4936160;29;20703;-77
2021/12/14 00:51:59;;;;;;;18.27;10.60;;;8.00;99.90;;;;;;4951554;28;20551;-77
2021/12/14 00:54:25;;;;;;;20.48;10.73;;;7.90;99.90;;;;;;4972080;28;20148;-78
2021/12/14 00:56:51;;;;;;;17.65;10.55;;;7.90;99.90;;;;;;4955297;28;20054;-77
2021/12/14 00:59:20;;;;;;;18.10;9.63;;;8.00;99.90;;;;;;4971842;28;20057;-79
2021/12/14 01:01:51;;;;;;;18.63;10.13;;;7.90;99.90;;;;;;4955066;28;20065;-77
2021/12/14 01:04:24;;;;;;;19.58;9.95;;;7.90;99.90;;;;;;4939938;29;20527;-79
2021/12/14 01:06:50;;;;;;;17.92;9.98;;;7.90;99.90;;;;;;4934759;29;20082;-77
2021/12/14 01:09:20;;;;;;;20.67;10.45;;;7.90;99.90;;;;;;4951681;29;20153;-77
2021/12/14 01:11:49;;;;;;;19.20;9.95;;;7.90;99.90;;;;;;4935403;29;20074;-78
2021/12/14 01:14:27;;;;;;;19.73;10.73;;;7.90;99.90;;;;;;4935736;29;20137;-77
2021/12/14 01:17:09;;;;;;;19.00;10.30;;;7.90;99.90;;;;;;4935249;29;20047;-77
2021/12/14 01:19:37;;;;;;;19.00;9.90;;;7.90;99.90;;;;;;4934579;29;20145;-78
2021/12/14 01:25:08;;;;;;;20.35;10.90;;;8.00;99.90;;;;;;4935518;29;20067;-77
2021/12/14 01:27:41;;;;;;;18.08;10.57;;;7.90;99.90;;;;;;4931432;29;20091;-77
2021/12/14 01:30:27;;;;;;;19.13;10.77;;;7.90;99.90;;;;;;4945589;29;20106;-77
2021/12/14 01:32:56;;;;;;;18.02;9.45;;;7.90;99.90;;;;;;4905522;29;20051;-77
2021/12/14 01:35:27;;;;;;;20.00;11.45;;;7.90;99.90;;;;;;4935086;29;20099;-77
2021/12/14 01:38:04;;;;;;;16.92;10.30;;;7.90;99.90;;;;;;4934382;29;20059;-77
2021/12/14 01:40:54;;;;;;;20.65;10.90;;;7.90;99.90;;;;;;4947871;28;20129;-77
2021/12/14 01:43:30;;;;;;;19.02;11.18;;;7.80;99.90;;;;;;4954589;28;20460;-79
2021/12/14 01:45:57;;;;;;;18.83;10.10;;;7.80;99.90;;;;;;4954638;28;20057;-78
2021/12/14 01:48:23;;;;;;;19.13;10.75;;;7.90;99.90;;;;;;4937185;28;20058;-77
2021/12/14 01:50:53;;;;;;;17.55;9.80;;;7.80;99.90;;;;;;4954477;28;20050;-77
2021/12/14 01:53:23;;;;;;;22.00;11.10;;;7.80;99.90;;;;;;4934055;29;20054;-79
2021/12/14 01:55:53;;;;;;;18.73;9.90;;;7.80;99.90;;;;;;4934864;29;20129;-77
2021/12/14 01:58:24;;;;;;;18.25;9.93;;;7.80;99.90;;;;;;4952436;29;20053;-77
2021/12/14 02:01:03;;;;;;;21.30;10.60;;;7.80;99.90;;;;;;4935049;29;20547;-77
2021/12/14 02:03:39;;;;;;;17.90;9.98;;;8.00;99.90;;;;;;4934547;28;20425;-78
2021/12/14 02:06:06;;;;;;;19.00;10.32;;;7.80;99.90;;;;;;4952978;28;20061;-77
2021/12/14 02:08:34;;;;;;;21.17;10.98;;;7.80;99.90;;;;;;4938330;29;20085;-78
2021/12/14 02:11:03;;;;;;;23.15;10.90;;;7.80;99.90;;;;;;4912104;29;20060;-77
2021/12/14 02:13:39;;;;;;;20.50;10.00;;;7.90;99.90;;;;;;4912978;29;20095;-77
2021/12/14 02:16:07;;;;;;;23.33;10.83;;;7.90;99.90;;;;;;4905832;29;20052;-77
2021/12/14 02:18:33;;;;;;;19.60;10.55;;;8.00;99.90;;;;;;4928244;29;20139;-77
2021/12/14 02:21:07;;;;;;;22.23;11.63;;;7.90;99.90;;;;;;4896185;29;20056;-78
2021/12/14 02:23:35;;;;;;;21.13;10.80;;;7.90;99.90;;;;;;4911996;29;20059;-78
2021/12/14 02:26:04;;;;;;;21.38;11.25;;;8.00;99.90;;;;;;4913505;29;20052;-77
2021/12/14 02:28:30;;;;;;;21.70;11.70;;;7.90;99.90;;;;;;4928237;29;20055;-77
2021/12/14 02:31:00;;;;;;;23.05;11.68;;;7.90;99.90;;;;;;4891873;29;20052;-77
2021/12/14 02:33:32;;;;;;;23.48;11.63;;;7.90;99.90;;;;;;4930548;29;20132;-77
2021/12/14 02:36:00;;;;;;;24.08;12.23;;;7.80;99.90;;;;;;4930591;29;20111;-77
2021/12/14 02:38:27;;;;;;;25.63;12.45;;;7.80;99.90;;;;;;4930663;29;20146;-78
2021/12/14 02:40:57;;;;;;;23.15;12.40;;;7.80;99.90;;;;;;4932264;29;20130;-77
2021/12/14 02:43:29;;;;;;;23.60;12.07;;;7.80;99.90;;;;;;4932622;29;20043;-80
2021/12/14 02:46:06;;;;;;;20.73;12.15;;;7.80;99.90;;;;;;4915690;29;20052;-77
2021/12/14 02:48:32;;;;;;;23.67;12.27;;;7.80;99.90;;;;;;4931143;29;20449;-77
2021/12/14 02:51:09;;;;;;;25.67;12.40;;;7.80;99.90;;;;;;4931636;29;20103;-78
2021/12/14 02:53:36;;;;;;;;;;;7.80;99.90;;;;;;4931140;29;20051;-77
2021/12/14 02:56:14;;;;;;;25.85;11.88;;;7.80;99.90;;;;;;4931130;29;19977;-77
2021/12/14 02:58:40;;;;;;;27.65;12.93;;;7.80;99.90;;;;;;4931120;29;20055;-77
2021/12/14 03:01:07;;;;;;;28.73;13.73;;;7.70;99.90;;;;;;4930647;29;20055;-77
2021/12/14 03:03:35;;;;;;;25.30;13.57;;;7.80;99.90;;;;;;4931875;29;20044;-77
2021/12/14 03:06:02;;;;;;;23.48;12.95;;;7.80;99.90;;;;;;4930570;29;20062;-77
2021/12/14 03:08:33;;;;;;;25.42;13.48;;;7.80;99.90;;;;;;4930035;29;20115;-78
2021/12/14 03:11:10;;;;;;;25.92;12.85;;;7.80;99.90;;;;;;4930822;29;20062;-77
2021/12/14 03:13:38;;;;;;;26.42;13.80;;;7.80;99.90;;;;;;4914960;29;20055;-77
2021/12/14 03:16:08;;;;;;;27.60;15.35;;;7.80;99.90;;;;;;4931282;29;20055;-77
2021/12/14 03:18:40;;;;;;;27.45;14.82;;;7.80;99.90;;;;;;4930757;29;20055;-78
2021/12/14 03:21:09;;;;;;;29.60;14.93;;;7.70;99.90;;;;;;4916569;29;20127;-77
2021/12/14 03:24:09;;;;;;;29.38;15.55;;;7.80;99.90;;;;;;4914110;29;20051;-77
2021/12/14 03:26:39;;;;;;;31.05;15.25;;;7.70;99.90;;;;;;4930374;29;20449;-77
2021/12/14 03:29:12;;;;;;;31.58;15.38;;;7.70;99.90;;;;;;4931112;29;20536;-77
2021/12/14 03:31:44;;;;;;;34.17;15.98;;;7.70;99.90;;;;;;4931318;29;20047;-77
2021/12/14 03:34:22;;;;;;;27.08;14.35;;;7.70;99.90;;;;;;4932197;29;20067;-77
2021/12/14 03:36:58;;;;;;;30.98;15.43;;;7.80;99.90;;;;;;4929108;29;20076;-77
2021/12/14 03:39:31;;;;;;;29.63;15.50;;;7.80;99.90;;;;;;4931134;29;20048;-77
2021/12/14 03:42:05;;;;;;;33.72;16.60;;;7.80;99.90;;;;;;4930683;29;20056;-77
2021/12/14 03:44:44;;;;;;;27.30;14.40;;;7.80;99.90;;;;;;4926164;29;20147;-77
2021/12/14 03:47:18;;;;;;;31.48;15.20;;;7.80;99.90;;;;;;4915315;29;20060;-78
2021/12/14 03:49:52;;;;;;;26.27;13.48;;;7.80;99.90;;;;;;4931388;29;20055;-77
2021/12/14 03:52:21;;;;;;;34.25;16.35;;;7.80;99.90;;;;;;4933140;29;20087;-77
2021/12/14 03:54:48;;;;;;;35.97;17.23;;;7.80;99.90;;;;;;4933665;29;20536;-77
2021/12/14 03:57:13;;;;;;;;;;;7.80;99.90;;;;;;4925283;29;20071;-77
2021/12/14 03:59:40;;;;;;;32.95;15.82;;;7.80;99.90;;;;;;4898855;29;20266;-77
2021/12/14 04:02:10;;;;;;;33.03;17.38;;;7.80;99.90;;;;;;4914978;29;20063;-77
2021/12/14 04:04:43;;;;;;;34.97;17.95;;;7.70;99.90;;;;;;4925316;29;20494;-77
2021/12/14 04:07:13;;;;;;;33.63;17.15;;;7.70;99.90;;;;;;4928571;28;20068;-76
2021/12/14 04:09:41;;;;;;;32.72;16.27;;;7.70;99.90;;;;;;4936636;29;20066;-78
2021/12/14 04:12:09;;;;;;;33.13;15.93;;;7.70;99.90;;;;;;4920959;29;20142;-77
2021/12/14 04:14:44;;;;;;;38.08;18.23;;;7.70;99.90;;;;;;4936226;29;20520;-77
2021/12/14 04:17:11;;;;;;;36.03;16.83;;;7.70;99.90;;;;;;4949324;28;20058;-77
2021/12/14 04:19:39;;;;;;;37.15;18.65;;;7.70;99.90;;;;;;4939519;28;20064;-77
2021/12/14 04:22:09;;;;;;;37.72;18.25;;;7.80;99.90;;;;;;4938788;28;20098;-77
2021/12/14 04:24:37;;;;;;;37.30;18.05;;;7.70;99.90;;;;;;4939747;28;20062;-77
2021/12/14 04:27:08;;;;;;;34.38;17.63;;;7.70;99.90;;;;;;4955560;28;20055;-77
2021/12/14 04:29:34;;;;;;;37.28;18.50;;;7.70;99.90;;;;;;4955677;28;20488;-78
2021/12/14 04:32:00;;;;;;;35.38;18.00;;;7.70;99.90;;;;;;4955582;28;20047;-77
2021/12/14 04:34:29;;;;;;;37.55;18.67;;;7.70;99.90;;;;;;4955197;28;20089;-77
2021/12/14 04:36:56;;;;;;;37.88;17.13;;;7.70;99.90;;;;;;4947321;29;20055;-77
2021/12/14 04:53:23;;;;;;;40.15;19.10;;;7.60;99.90;;;;;;4922455;28;20057;-77
2021/12/14 04:55:52;;;;;;;42.00;20.17;;;7.60;99.90;;;;;;4935605;29;20130;-77
2021/12/14 04:58:28;;;;;;;45.22;20.95;;;7.50;99.90;;;;;;4962727;28;20056;-77
2021/12/14 05:00:54;;;;;;;41.58;21.60;;;7.50;99.90;;;;;;4952792;29;20117;-77
2021/12/14 05:03:21;;;;;;;;;;;7.50;99.90;;;;;;4955400;28;20046;-77
2021/12/14 05:05:50;;;;;;;;;;;7.40;99.90;;;;;;4955058;28;19926;-77
2021/12/14 05:11:07;;;;;;;41.92;20.42;;;7.40;99.90;;;;;;4954155;28;20093;-77
2021/12/14 05:13:45;;;;;;;46.45;22.23;;;7.40;99.90;;;;;;4955007;28;20047;-77
2021/12/14 05:16:20;;;;;;;44.03;20.02;;;7.40;99.90;;;;;;4955045;28;20117;-75
2021/12/14 05:18:56;;;;;;;43.03;21.38;;;7.40;99.90;;;;;;4945629;29;20405;-75
2021/12/14 05:21:28;;;;;;;48.50;21.00;;;7.40;99.90;;;;;;4934581;29;20166;-75
2021/12/14 05:23:54;;;;;;;47.67;21.30;;;7.40;99.90;;;;;;4935465;29;20059;-75
2021/12/14 05:26:21;;;;;;;44.65;21.33;;;7.40;99.90;;;;;;4950152;28;20129;-75
2021/12/14 05:28:48;;;;;;;44.47;22.58;;;7.40;99.90;;;;;;4940279;29;20055;-75
2021/12/14 05:31:14;;;;;;;49.72;23.00;;;7.40;99.90;;;;;;4935536;29;20055;-75
2021/12/14 05:33:41;;;;;;;41.60;20.05;;;7.50;99.90;;;;;;4936732;28;20047;-75
2021/12/14 05:36:16;;;;;;;45.22;21.25;;;7.50;99.90;;;;;;4938120;28;20065;-75
2021/12/14 05:38:59;;;;;;;46.95;22.70;;;7.50;99.90;;;;;;4954550;28;20070;-75
2021/12/14 05:44:25;;;;;;;41.80;20.85;;;7.60;99.90;;;;;;4953754;28;20077;-75
2021/12/14 05:46:54;;;;;;;45.85;22.00;;;7.50;99.90;;;;;;4939926;29;20453;-75
2021/12/14 05:49:26;;;;;;;48.90;23.05;;;7.50;99.90;;;;;;4952609;29;20098;-75
2021/12/14 05:51:54;;;;;;;49.30;23.02;;;7.50;99.90;;;;;;4933484;29;20092;-75
2021/12/14 05:54:23;;;;;;;48.20;22.30;;;7.50;99.90;;;;;;4935304;29;20361;-75
2021/12/14 05:56:50;;;;;;;47.72;23.40;;;7.50;99.90;;;;;;4934390;29;20086;-75
2021/12/14 05:59:19;;;;;;;46.67;20.70;;;7.50;99.90;;;;;;4919485;29;20453;-75
2021/12/14 06:01:45;;;;;;;46.45;22.58;;;7.60;99.90;;;;;;4933641;29;20142;-75
2021/12/14 06:04:11;;;;;;;49.50;21.77;;;7.60;99.90;;;;;;4946988;28;20109;-76
2021/12/14 06:06:42;;;;;;;48.38;22.38;;;7.60;99.90;;;;;;4951726;28;20528;-77
2021/12/14 06:09:12;;;;;;;49.58;23.10;;;7.60;99.90;;;;;;4953728;28;20145;-75
2021/12/14 06:11:39;;;;;;;46.58;22.63;;;7.60;99.90;;;;;;4953251;28;20148;-77
2021/12/14 06:14:18;;;;;;;50.92;24.33;;;7.60;99.90;;;;;;4971321;28;20046;-75
2021/12/14 06:16:46;;;;;;;48.60;23.55;;;7.70;99.90;;;;;;4953259;28;20138;-78
2021/12/14 06:19:23;;;;;;;58.47;27.23;;;7.70;99.90;;;;;;4971308;28;20046;-75
2021/12/14 06:21:53;;;;;;;60.47;27.05;;;7.60;99.90;;;;;;4936110;28;20142;-75
2021/12/14 06:24:23;;;;;;;52.05;25.33;;;7.60;99.90;;;;;;4971121;28;20536;-75
2021/12/14 06:26:51;;;;;;;56.30;24.13;;;7.60;99.90;;;;;;4952877;28;20051;-75
2021/12/14 06:29:28;;;;;;;55.97;25.08;;;7.60;99.90;;;;;;4953918;28;20078;-75
2021/12/14 06:31:54;;;;;;;55.75;23.75;;;7.60;99.90;;;;;;4947458;29;20055;-75
2021/12/14 06:34:28;;;;;;;58.45;26.75;;;7.60;99.90;;;;;;4943660;29;20583;-75
2021/12/14 06:37:20;;;;;;;58.83;27.13;;;7.60;99.90;;;;;;4932894;29;20213;-76
2021/12/14 06:40:06;;;;;;;59.15;25.00;;;7.50;99.90;;;;;;4918414;29;20065;-75
2021/12/14 06:42:33;;;;;;;68.03;28.47;;;7.50;99.90;;;;;;4918974;29;20090;-75
2021/12/14 06:45:07;;;;;;;60.88;27.67;;;7.50;99.90;;;;;;4934024;29;20496;-75
2021/12/14 06:47:33;;;;;;;62.67;27.35;;;7.50;99.90;;;;;;4945490;28;20142;-75
2021/12/14 06:50:01;;;;;;;64.35;27.30;;;7.50;99.90;;;;;;4953137;28;20137;-75
2021/12/14 06:52:27;;;;;;;70.93;28.83;;;7.50;99.90;;;;;;4942857;29;20207;-75
2021/12/14 06:54:53;;;;;;;63.65;25.58;;;7.50;99.90;;;;;;4917664;29;20039;-76
2021/12/14 06:57:21;;;;;;;66.72;26.27;;;7.50;99.90;;;;;;4954476;28;20050;-76
2021/12/14 06:59:47;;;;;;;74.60;29.73;;;7.50;99.90;;;;;;4953352;28;20154;-76
2021/12/14 07:02:13;;;;;;;;;;;7.50;99.90;;;;;;4938049;28;20080;-75
2021/12/14 07:04:48;;;;;;;71.88;26.70;;;7.50;99.90;;;;;;4937834;28;20367;-76
2021/12/14 07:07:17;;;;;;;67.85;26.55;;;7.70;99.90;;;;;;4952450;28;20583;-76
2021/12/14 07:09:46;;;;;;;71.78;27.73;;;7.50;99.90;;;;;;4952690;28;20515;-76
2021/12/14 07:12:19;;;;;;;74.82;30.25;;;7.50;99.90;;;;;;4953112;28;20058;-76
2021/12/14 07:14:50;;;;;;;78.88;30.42;;;7.50;99.90;;;;;;4946909;29;20118;-75
2021/12/14 07:17:32;;;;;;;75.15;31.45;;;7.50;99.90;;;;;;4948326;28;20055;-75
2021/12/14 07:20:05;;;;;;;81.13;32.78;;;7.50;99.90;;;;;;4937611;29;20071;-75
2021/12/14 07:22:44;;;;;;;78.15;30.33;;;7.50;99.90;;;;;;4936946;29;20142;-76
2021/12/14 07:25:16;;;;;;;80.47;29.80;;;7.50;99.90;;;;;;4921868;29;20098;-76
2021/12/14 07:27:50;;;;;;;75.38;30.48;;;7.50;99.90;;;;;;4938020;29;20067;-77
2021/12/14 07:30:39;;;;;;;74.25;29.60;;;7.50;99.90;;;;;;4939113;28;20477;-76
2021/12/14 07:33:25;;;;;;;74.15;30.23;;;7.50;99.90;;;;;;4973498;28;20193;-77
2021/12/14 07:35:58;;;;;;;76.90;28.75;;;7.50;99.90;;;;;;4955837;28;20113;-78
2021/12/14 07:38:33;;;;;;;83.45;31.42;;;7.50;99.90;;;;;;4956683;28;20062;-78
2021/12/14 07:41:08;;;;;;;75.15;29.23;;;7.50;99.90;;;;;;4938823;28;20050;-77
2021/12/14 07:44:09;;;;;;;74.47;28.55;;;7.50;99.90;;;;;;4940197;28;20054;-77
2021/12/14 07:46:43;;;;;;;79.97;33.47;;;7.50;99.90;;;;;;4952930;28;20101;-77
2021/12/14 07:49:33;;;;;;;77.97;30.85;;;7.60;99.90;;;;;;4957693;28;20105;-77
2021/12/14 07:52:08;;;;;;;72.72;27.48;;;7.60;99.90;;;;;;4955522;28;20057;-76
2021/12/14 07:54:42;;;;;;;67.93;27.42;;;7.60;99.90;;;;;;4957381;28;20130;-77
2021/12/14 07:57:15;;;;;;;77.85;31.95;;;7.60;99.90;;;;;;4956749;28;20062;-77
2021/12/14 07:59:47;;;;;;;73.32;30.40;;;7.60;99.90;;;;;;4974665;28;20133;-77
2021/12/14 08:02:20;;;;;;;70.38;28.52;;;7.60;99.90;;;;;;4936810;29;20145;-77
2021/12/14 08:04:58;;;;;;;78.40;31.90;;;7.60;99.90;;;;;;4921983;29;20494;-78
2021/12/14 08:07:35;;;;;;;78.25;32.22;;;7.70;99.90;;;;;;4921004;29;20066;-77
2021/12/14 08:10:24;;;;;;;72.20;30.52;;;7.70;99.90;;;;;;4936675;29;20051;-77
2021/12/14 08:12:50;;;;;;;72.40;32.33;;;7.70;99.90;;;;;;4954600;29;20059;-77
2021/12/14 08:15:25;;;;;;;71.53;31.52;;;7.70;99.90;;;;;;4937812;29;20043;-77
2021/12/14 08:18:08;;;;;;;68.13;28.65;;;7.70;99.90;;;;;;4957872;28;20049;-77
2021/12/14 08:20:37;;;;;;;76.10;30.33;;;7.70;99.90;;;;;;4971923;28;20050;-77
2021/12/14 08:23:14;;;;;;;71.65;29.30;;;7.70;99.90;;;;;;4955406;28;20062;-77
2021/12/14 08:25:41;;;;;;;75.18;30.15;;;7.70;99.90;;;;;;4956446;28;20133;-77
2021/12/14 08:28:07;;;;;;;81.68;32.63;;;7.80;99.90;;;;;;4955868;28;20105;-77
2021/12/14 08:30:36;;;;;;;72.28;29.15;;;7.80;99.90;;;;;;4955003;28;20534;-77
2021/12/14 08:33:04;;;;;;;83.00;34.40;;;7.80;99.90;;;;;;4936796;29;20059;-77
2021/12/14 08:35:30;;;;;;;88.10;34.72;;;7.80;99.90;;;;;;4954585;29;20059;-77
2021/12/14 08:38:02;;;;;;;89.38;35.53;;;7.80;99.90;;;;;;4935650;29;20208;-77
2021/12/14 08:40:38;;;;;;;80.75;32.67;;;7.80;99.90;;;;;;4937086;29;20134;-77
2021/12/14 08:43:21;;;;;;;87.22;34.00;;;7.80;99.90;;;;;;4944576;29;20174;-77
2021/12/14 08:46:13;;;;;;;89.65;33.88;;;7.80;99.90;;;;;;4950888;28;20102;-78
2021/12/14 08:48:46;;;;;;;86.82;32.38;;;7.80;99.90;;;;;;4952359;28;20105;-77
2021/12/14 08:51:26;;;;;;;76.07;29.92;;;7.80;99.90;;;;;;4969729;28;20141;-78
2021/12/14 08:54:06;;;;;;;79.63;29.80;;;7.70;99.90;;;;;;4937105;28;20069;-78
2021/12/14 08:56:35;;;;;;;81.05;31.17;;;7.80;99.90;;;;;;4948301;28;20054;-77
2021/12/14 08:59:02;;;;;;;81.97;30.52;;;7.80;99.90;;;;;;4969860;28;20062;-77
2021/12/14 09:01:31;;;;;;;87.32;31.17;;;7.80;99.90;;;;;;4952200;28;20538;-77
2021/12/14 09:04:01;;;;;;;76.05;27.98;;;7.80;99.90;;;;;;4946630;28;20050;-77
2021/12/14 09:06:32;;;;;;;85.22;33.08;;;7.80;99.90;;;;;;4934801;28;20061;-78
2021/12/14 09:09:03;;;;;;;81.65;30.73;;;7.80;99.90;;;;;;4948104;28;20497;-77
2021/12/14 09:11:32;;;;;;;80.85;32.53;;;7.80;99.90;;;;;;4945769;28;20055;-78
2021/12/14 09:13:59;;;;;;;80.93;30.85;;;7.80;99.90;;;;;;4948556;28;20049;-78
2021/12/14 09:16:26;;;;;;;;;;;7.80;99.90;;;;;;4953857;28;20074;-77
2021/12/14 09:19:03;;;;;;;76.55;29.40;;;7.80;99.90;;;;;;4935463;28;19926;-80
2021/12/14 09:21:35;;;;;;;78.38;31.00;;;7.90;99.90;;;;;;4945033;28;20059;-79
2021/12/14 09:24:06;;;;;;;78.63;31.13;;;7.90;99.90;;;;;;4942652;28;20059;-78
2021/12/14 09:26:38;;;;;;;73.03;30.30;;;7.90;99.90;;;;;;4935091;28;20051;-77
2021/12/14 09:29:08;;;;;;;74.53;30.55;;;7.90;99.90;;;;;;4957447;28;20104;-78
2021/12/14 09:31:37;;;;;;;76.75;31.38;;;7.90;99.90;;;;;;4971487;28;20189;-78
2021/12/14 09:34:05;;;;;;;69.78;31.10;;;7.90;99.90;;;;;;4949773;28;20038;-78
2021/12/14 09:36:31;;;;;;;74.88;31.50;;;8.00;99.90;;;;;;4919247;29;20054;-78
2021/12/14 09:39:29;;;;;;;79.50;31.67;;;8.00;99.90;;;;;;4935855;29;20047;-78
2021/12/14 09:41:56;;;;;;;67.18;27.73;;;8.00;99.90;;;;;;4946665;29;20086;-80
2021/12/14 09:44:25;;;;;;;74.60;30.83;;;8.00;99.90;;;;;;4945643;28;20058;-77
2021/12/14 09:46:55;;;;;;;65.00;28.33;;;8.00;99.90;;;;;;4949578;28;20576;-76
2021/12/14 09:49:21;;;;;;;74.32;29.38;;;8.00;99.90;;;;;;4920498;29;20055;-76
2021/12/14 09:51:51;;;;;;;66.45;29.98;;;8.10;99.90;;;;;;4934567;29;20579;-76
2021/12/14 09:54:20;;;;;;;69.32;30.50;;;8.00;99.90;;;;;;4952677;29;20087;-76
2021/12/14 09:56:54;;;;;;;68.80;28.40;;;8.10;99.90;;;;;;4952628;29;20054;-76
2021/12/14 09:59:20;;;;;;;66.38;30.00;;;8.10;99.90;;;;;;4937086;28;20516;-77
2021/12/14 10:01:59;;;;;;;62.13;27.70;;;8.10;99.90;;;;;;4948841;28;20051;-76
2021/12/14 10:04:28;;;;;;;62.40;26.65;;;8.20;99.90;;;;;;4952620;28;20121;-77
2021/12/14 10:06:55;;;;;;;56.33;27.05;;;8.10;99.90;;;;;;4966410;28;20054;-76
2021/12/14 10:09:26;;;;;;;65.03;28.35;;;8.20;99.90;;;;;;4954516;28;20058;-76
2021/12/14 10:14:25;;;;;;;60.05;25.08;;;8.20;99.90;;;;;;4953988;28;20047;-79
2021/12/14 10:16:52;;;;;;;64.13;26.63;;;8.30;99.90;;;;;;4935718;28;20062;-78
2021/12/14 10:19:23;;;;;;;70.03;30.67;;;8.30;99.90;;;;;;4965572;28;20047;-77
2021/12/14 10:21:56;;;;;;;59.55;25.70;;;8.20;99.90;;;;;;4947980;28;20602;-77
2021/12/14 10:24:23;;;;;;;59.38;26.92;;;8.30;99.90;;;;;;4948388;28;20054;-78
2021/12/14 10:26:53;;;;;;;68.13;30.35;;;8.20;99.90;;;;;;4950962;28;20047;-78
2021/12/14 10:29:19;;;;;;;60.83;27.75;;;8.30;99.90;;;;;;4932917;28;20104;-78
2021/12/14 10:31:59;;;;;;;65.57;27.65;;;8.20;99.90;;;;;;4946620;28;20050;-78
2021/12/14 10:34:26;;;;;;;63.85;28.67;;;8.30;99.90;;;;;;4959052;28;20053;-78
2021/12/14 10:37:03;;;;;;;63.80;27.45;;;8.20;99.90;;;;;;4945297;28;20066;-79
2021/12/14 10:44:49;;;;;;;52.45;25.80;;;8.20;99.90;;;;;;4953867;28;20070;-78
2021/12/14 10:47:17;;;;;;;63.88;28.70;;;8.30;99.90;;;;;;4969659;28;20090;-78
2021/12/14 10:49:44;;;;;;;61.97;26.52;;;8.30;99.90;;;;;;4954442;28;20070;-79
2021/12/14 10:52:15;;;;;;;65.45;27.00;;;8.20;99.90;;;;;;4937899;28;20144;-77
2021/12/14 10:54:46;;;;;;;56.17;24.38;;;8.30;99.90;;;;;;4975704;28;20189;-76
2021/12/14 10:57:16;;;;;;;58.20;27.58;;;8.30;99.90;;;;;;4942038;28;20078;-76
2021/12/14 10:59:45;;;;;;;60.92;27.52;;;8.40;99.90;;;;;;4958234;28;20127;-78
2021/12/14 11:02:11;;;;;;;61.97;27.63;;;8.40;99.90;;;;;;4974530;28;20118;-77
2021/12/14 11:04:58;;;;;;;56.22;25.17;;;8.40;99.90;;;;;;4958795;28;20440;-78
2021/12/14 11:07:26;;;;;;;56.38;25.67;;;8.40;99.90;;;;;;4957109;28;20055;-78
2021/12/14 11:09:55;;;;;;;61.00;25.13;;;8.40;99.90;;;;;;4957180;28;20062;-77
2021/12/14 11:12:28;;;;;;;64.20;27.40;;;8.40;99.90;;;;;;4956697;28;20066;-76
2021/12/14 11:15:17;;;;;;;60.33;27.25;;;8.40;99.90;;;;;;4957972;28;20122;-78
2021/12/14 11:20:38;;;;;;;64.82;27.17;;;8.40;99.90;;;;;;4958028;28;20050;-77
2021/12/14 11:23:25;;;;;;;63.55;26.50;;;8.40;99.90;;;;;;4955301;28;20047;-77
2021/12/14 11:25:59;;;;;;;61.55;26.88;;;8.50;99.90;;;;;;4956914;28;20086;-75
2021/12/14 11:28:38;;;;;;;62.55;27.58;;;8.50;99.90;;;;;;4973726;28;20074;-75
2021/12/14 11:31:44;;;;;;;75.97;30.60;;;8.40;99.90;;;;;;4974477;28;20073;-75
2021/12/14 11:34:34;;;;;;;70.53;28.58;;;8.40;99.90;;;;;;4906029;28;20055;-75
2021/12/14 11:37:04;;;;;;;76.32;29.48;;;8.40;99.90;;;;;;4953803;28;20050;-82
2021/12/14 11:39:38;;;;;;;84.93;31.63;;;8.40;99.90;;;;;;4957764;28;20051;-75
2021/12/14 11:42:11;;;;;;;74.38;27.85;;;8.40;99.90;;;;;;4955247;28;20128;-77
2021/12/14 11:44:41;;;;;;;81.07;31.85;;;8.40;99.90;;;;;;4958134;28;20077;-77
2021/12/14 11:50:05;;;;;;;72.80;26.65;;;8.40;99.90;;;;;;4945890;28;20043;-76
2021/12/14 11:52:59;;;;;;;91.35;31.35;;;8.40;99.90;;;;;;4965808;28;20110;-79
2021/12/14 11:56:06;;;;;;;87.13;32.15;;;8.40;99.90;;;;;;4951499;28;20050;-77
2021/12/14 11:58:43;;;;;;;94.15;32.05;;;8.40;99.90;;;;;;4910712;28;20091;-77
2021/12/14 12:01:20;;;;;;;104.28;34.35;;;8.40;99.90;;;;;;4952847;28;20046;-79
2021/12/14 12:04:11;;;;;;;103.00;33.30;;;8.40;99.90;;;;;;4965973;28;20062;-78
2021/12/14 12:09:32;;;;;;;93.90;32.28;;;8.40;99.90;;;;;;4953408;29;20528;-76
2021/12/14 12:12:06;;;;;;;83.65;29.92;;;8.40;99.90;;;;;;4953955;29;20059;-76
2021/12/14 12:14:43;;;;;;;104.10;34.85;;;8.40;99.90;;;;;;4954032;29;20058;-76
2021/12/14 12:17:27;;;;;;;97.40;33.47;;;8.40;99.90;;;;;;4956171;28;20093;-75
2021/12/14 12:20:14;;;;;;;90.32;30.70;;;8.40;99.90;;;;;;4974298;28;20066;-80
2021/12/14 12:22:47;;;;;;;94.90;31.98;;;8.40;99.90;;;;;;4940947;28;20057;-75
2021/12/14 12:25:21;;;;;;;88.97;30.23;;;8.40;99.90;;;;;;4956970;28;20057;-77
2021/12/14 12:27:55;;;;;;;91.22;31.27;;;8.40;99.90;;;;;;4957104;28;20066;-75
2021/12/14 12:30:50;;;;;;;78.97;28.73;;;8.40;99.90;;;;;;4940801;28;20065;-76
2021/12/14 12:33:28;;;;;;;81.03;27.95;;;8.40;99.90;;;;;;4929876;29;20063;-76
2021/12/14 12:36:12;;;;;;;82.32;27.80;;;8.40;99.90;;;;;;4955760;28;20046;-79
2021/12/14 12:38:47;;;;;;;80.45;29.00;;;8.40;99.90;;;;;;4965099;28;20057;-75
2021/12/14 12:41:38;;;;;;;86.63;28.23;;;8.40;99.90;;;;;;4948896;28;20050;-76
2021/12/14 12:44:12;;;;;;;84.00;27.88;;;8.40;99.90;;;;;;4949940;28;20044;-75
2021/12/14 12:46:52;;;;;;;86.35;28.38;;;8.40;99.90;;;;;;4943133;28;20069;-76
2021/12/14 12:49:26;;;;;;;83.63;28.65;;;8.40;99.90;;;;;;4946065;28;20050;-76
2021/12/14 12:51:58;;;;;;;83.57;28.48;;;8.40;99.90;;;;;;4947876;28;20418;-78
2021/12/14 12:54:45;;;;;;;83.88;28.70;;;8.40;99.90;;;;;;4932621;28;20042;-78
2021/12/14 12:57:17;;;;;;;94.38;29.02;;;8.40;99.90;;;;;;4969694;28;20078;-78
2021/12/14 12:59:43;;;;;;;87.55;26.40;;;8.40;99.90;;;;;;4946726;28;20055;-77
2021/12/14 13:02:14;;;;;;;82.10;25.55;;;8.40;99.90;;;;;;4945849;28;20523;-81
2021/12/14 13:04:42;;;;;;;85.35;25.58;;;8.40;99.90;;;;;;4946653;28;20118;-77
2021/12/14 13:07:09;;;;;;;83.10;26.55;;;8.50;99.90;;;;;;4963194;28;20055;-83
2021/12/14 13:10:06;;;;;;;82.18;25.63;;;8.50;99.90;;;;;;4968399;28;20061;-78
2021/12/14 13:12:56;;;;;;;88.47;27.02;;;8.50;99.90;;;;;;4969325;28;20043;-77
2021/12/14 13:15:39;;;;;;;82.88;25.25;;;8.50;99.90;;;;;;4956831;28;20051;-77
2021/12/14 13:18:27;;;;;;;76.45;24.08;;;8.50;99.90;;;;;;4944218;28;20098;-78
2021/12/14 13:21:02;;;;;;;76.43;23.58;;;8.50;99.90;;;;;;4943878;28;20121;-82
2021/12/14 13:23:44;;;;;;;83.97;27.15;;;8.50;99.90;;;;;;4962185;28;20126;-77
2021/12/14 13:26:19;;;;;;;67.90;22.17;;;8.50;99.90;;;;;;4945231;28;20467;-82
2021/12/14 13:28:45;;;;;;;74.03;24.50;;;8.50;99.90;;;;;;4936701;29;20055;-74
2021/12/14 13:31:27;;;;;;;68.10;22.40;;;8.50;99.90;;;;;;4940670;29;20061;-81
2021/12/14 13:33:53;;;;;;;68.13;22.02;;;8.50;99.90;;;;;;4962851;28;20481;-75
2021/12/14 13:36:19;;;;;;;62.83;21.65;;;8.50;99.90;;;;;;4950881;28;20122;-78
2021/12/14 13:38:45;;;;;;;69.18;23.42;;;8.50;99.90;;;;;;4966919;28;20172;-77
2021/12/14 13:41:42;;;;;;;64.47;22.10;;;8.50;99.90;;;;;;4964286;28;20130;-80
2021/12/14 13:44:08;;;;;;;66.18;22.58;;;8.50;99.90;;;;;;4912465;28;20090;-76
2021/12/14 13:46:34;;;;;;;67.63;23.33;;;8.50;99.90;;;;;;4943813;28;20083;-76
2021/12/14 13:48:59;;;;;;;65.43;22.67;;;8.50;99.90;;;;;;4953065;28;20093;-76
2021/12/14 13:51:29;;;;;;;66.18;23.35;;;8.60;99.90;;;;;;4948922;28;20053;-77
2021/12/14 13:53:56;;;;;;;78.07;25.23;;;8.50;99.90;;;;;;4961245;28;20042;-75
2021/12/14 13:56:29;;;;;;;63.05;20.65;;;8.50;99.90;;;;;;4934356;28;20087;-74